Port Stanley — V7EE9 — position and weather

sailwx.info

Track history (hours):
 
Tides and Currents Weather Stations Pressure Air Temp Water Temp Dewpoint Dewpoint Depression Visibility Wind Speed Wind Dir Waves Ship Positions

Port Stanley

Last reported at 2016-Apr-27 08:12 UTC. Time now 2016-May-04 23:10 UTC.
Position N 01°14' E 104°03'.

Length 183 m; draft 11.5 m.

Type: Other ship. MMSI: 538090299.

Date/timePositionNaut miles runAvg speedWind from/ knotsBaromVisibWave heightAir tempDewpointWater temp
2016-Apr-27 08:12N 01°14' E 104°03'711.2
2016-Apr-27 07:33N 01°13' E 103°56'7 7.3
2016-Apr-27 06:33N 01°12' E 103°48'0 0.4
2016-Apr-27 05:22N 01°12' E 103°48'0 0.0
2016-Apr-26 10:08N 01°12' E 103°48'0 0.0
2016-Apr-26 09:32N 01°12' E 103°48'0 0.0
2016-Apr-26 08:32N 01°12' E 103°48'0 0.0
2016-Apr-26 07:29N 01°12' E 103°48'0 0.0
2016-Apr-26 06:23N 01°12' E 103°48'2 1.9
2016-Apr-26 05:33N 01°14' E 103°48'0 0.1
2016-Apr-26 04:16N 01°14' E 103°48'0 0.1
2016-Apr-26 03:25N 01°14' E 103°48'0 0.1
2016-Apr-26 02:28N 01°14' E 103°48'0 0.0
2016-Apr-26 01:31N 01°14' E 103°48'0 0.0
2016-Apr-26 00:31N 01°14' E 103°48'0 0.0
2016-Apr-25 23:31N 01°14' E 103°48'0 0.0
2016-Apr-25 22:28N 01°14' E 103°48'0 0.0
2016-Apr-25 21:31N 01°14' E 103°48'0 0.0
2016-Apr-25 20:31N 01°14' E 103°48'0 0.0
2016-Apr-25 19:31N 01°14' E 103°48'0 0.0
2016-Apr-25 18:31N 01°14' E 103°48'0 0.0
2016-Apr-25 17:28N 01°14' E 103°48'0 0.0
2016-Apr-25 16:31N 01°14' E 103°48'0 0.1
2016-Apr-25 15:28N 01°14' E 103°48'0 0.1
2016-Apr-25 14:31N 01°14' E 103°48'0 0.0
2016-Apr-25 13:25N 01°14' E 103°48'1 1.1
2016-Apr-25 12:33N 01°14' E 103°47'8 8.4
2016-Apr-25 11:33N 01°12' E 103°39'6 5.8
2016-Apr-25 10:32N 01°13' E 103°33'8 7.2
2016-Apr-25 09:28N 01°11' E 103°26'55 8.7
2016-Apr-25 03:06N 01°42' E 102°39'712.0
2016-Apr-25 02:31N 01°45' E 102°33'1312.3
2016-Apr-25 01:28N 01°50' E 102°21'1412.6
2016-Apr-25 00:19N 01°58' E 102°09'10 0.2
2016-Apr-22 20:30N 01°56' E 102°19'1313.3
2016-Apr-22 19:32N 01°51' E 102°31'1414.4
2016-Apr-22 18:33N 01°45' E 102°43'53 1.4
2016-Apr-21 04:29N 01°16' E 103°27'5 5.1
2016-Apr-21 03:32N 01°13' E 103°31'1111.5
2016-Apr-21 02:33N 01°10' E 103°42'1312.6
2016-Apr-21 01:33N 01°13' E 103°54'4 4.0
2016-Apr-21 00:33N 01°17' E 103°55'0 0.1
2016-Apr-20 23:31N 01°17' E 103°55'0 0.1
2016-Apr-20 22:31N 01°17' E 103°55'0 0.1
2016-Apr-20 21:28N 01°17' E 103°55'0 0.1
2016-Apr-20 20:31N 01°17' E 103°55'0 0.0
2016-Apr-20 19:04N 01°17' E 103°55'0 0.1
2016-Apr-20 18:31N 01°17' E 103°55'0 0.1
2016-Apr-20 17:31N 01°17' E 103°55'0 0.1
2016-Apr-20 16:28N 01°17' E 103°55'0 0.0
2016-Apr-20 15:31N 01°17' E 103°55'0 0.0
2016-Apr-20 14:31N 01°17' E 103°55'0 0.0
2016-Apr-20 13:19N 01°17' E 103°55'0 0.0
2016-Apr-20 12:31N 01°17' E 103°55'0 0.0
2016-Apr-20 11:13N 01°17' E 103°55'0 0.4
2016-Apr-20 10:33N 01°17' E 103°55'6 5.9
2016-Apr-20 09:33N 01°16' E 104°01'  
Track history (hours):
 
Tides and Currents Weather Stations Pressure Air Temp Water Temp Dewpoint Dewpoint Depression Visibility Wind Speed Wind Dir Waves Ship Positions

Port Stanley

Last reported at 2016-Apr-27 08:12 UTC. Time now 2016-May-04 23:10 UTC.
Position N 01°14' E 104°03'.

Length 183 m; draft 11.5 m.

Type: Other ship. MMSI: 538090299.

Date/timePositionNaut miles runAvg speedWind from/ knotsBaromVisibWave heightAir tempDewpointWater temp
2016-Apr-27 08:12N 01°14' E 104°03'711.2
2016-Apr-27 07:33N 01°13' E 103°56'7 7.3
2016-Apr-27 06:33N 01°12' E 103°48'0 0.4
2016-Apr-27 05:22N 01°12' E 103°48'0 0.0
2016-Apr-26 10:08N 01°12' E 103°48'0 0.0
2016-Apr-26 09:32N 01°12' E 103°48'0 0.0
2016-Apr-26 08:32N 01°12' E 103°48'0 0.0
2016-Apr-26 07:29N 01°12' E 103°48'0 0.0
2016-Apr-26 06:23N 01°12' E 103°48'2 1.9
2016-Apr-26 05:33N 01°14' E 103°48'0 0.1
2016-Apr-26 04:16N 01°14' E 103°48'0 0.1
2016-Apr-26 03:25N 01°14' E 103°48'0 0.1
2016-Apr-26 02:28N 01°14' E 103°48'0 0.0
2016-Apr-26 01:31N 01°14' E 103°48'0 0.0
2016-Apr-26 00:31N 01°14' E 103°48'0 0.0
2016-Apr-25 23:31N 01°14' E 103°48'0 0.0
2016-Apr-25 22:28N 01°14' E 103°48'0 0.0
2016-Apr-25 21:31N 01°14' E 103°48'0 0.0
2016-Apr-25 20:31N 01°14' E 103°48'0 0.0
2016-Apr-25 19:31N 01°14' E 103°48'0 0.0
2016-Apr-25 18:31N 01°14' E 103°48'0 0.0
2016-Apr-25 17:28N 01°14' E 103°48'0 0.0
2016-Apr-25 16:31N 01°14' E 103°48'0 0.1
2016-Apr-25 15:28N 01°14' E 103°48'0 0.1
2016-Apr-25 14:31N 01°14' E 103°48'0 0.0
2016-Apr-25 13:25N 01°14' E 103°48'1 1.1
2016-Apr-25 12:33N 01°14' E 103°47'8 8.4
2016-Apr-25 11:33N 01°12' E 103°39'6 5.8
2016-Apr-25 10:32N 01°13' E 103°33'8 7.2
2016-Apr-25 09:28N 01°11' E 103°26'55 8.7
2016-Apr-25 03:06N 01°42' E 102°39'712.0
2016-Apr-25 02:31N 01°45' E 102°33'1312.3
2016-Apr-25 01:28N 01°50' E 102°21'1412.6
2016-Apr-25 00:19N 01°58' E 102°09'10 0.2
2016-Apr-22 20:30N 01°56' E 102°19'1313.3
2016-Apr-22 19:32N 01°51' E 102°31'1414.4
2016-Apr-22 18:33N 01°45' E 102°43'53 1.4
2016-Apr-21 04:29N 01°16' E 103°27'5 5.1
2016-Apr-21 03:32N 01°13' E 103°31'1111.5
2016-Apr-21 02:33N 01°10' E 103°42'1312.6
2016-Apr-21 01:33N 01°13' E 103°54'4 4.0
2016-Apr-21 00:33N 01°17' E 103°55'0 0.1
2016-Apr-20 23:31N 01°17' E 103°55'0 0.1
2016-Apr-20 22:31N 01°17' E 103°55'0 0.1
2016-Apr-20 21:28N 01°17' E 103°55'0 0.1
2016-Apr-20 20:31N 01°17' E 103°55'0 0.0
2016-Apr-20 19:04N 01°17' E 103°55'0 0.1
2016-Apr-20 18:31N 01°17' E 103°55'0 0.1
2016-Apr-20 17:31N 01°17' E 103°55'0 0.1
2016-Apr-20 16:28N 01°17' E 103°55'0 0.0
2016-Apr-20 15:31N 01°17' E 103°55'0 0.0
2016-Apr-20 14:31N 01°17' E 103°55'0 0.0
2016-Apr-20 13:19N 01°17' E 103°55'0 0.0
2016-Apr-20 12:31N 01°17' E 103°55'0 0.0
2016-Apr-20 11:13N 01°17' E 103°55'0 0.4
2016-Apr-20 10:33N 01°17' E 103°55'6 5.9
2016-Apr-20 09:33N 01°16' E 104°01'  

Dump ship's entire track history